Alvord, Texas
Current Conditions -  °F | °C
As of 1:55 PM on Tuesday 21 Oct 2014 (Local Time) from KLUD Reporting Station
Clear Clear  
Wind Chill: 27°   Ceiling: Unl
Heat Index: 27°   Visibility: 10mi
Dew Point:   Wind: 12mph
Humidity: 31%   Direction: 110°ESE
Pressure: 30.07"   Gusts: NA
Location:  33.36°N, 97.69°W
Report Text: KLUD 211855Z AUTO 11010KT 10SM CLR 27/08 A3007 RMK AO2 T02680083
Loading
Personal Weather Stations






























Interactive Weather Map
Tropical Storm Tracking
New forecast layout! Learn more

10-Day Weather Forecast

Advertisements
Track Severe Weather on mobile